Time;durP1;ratioP1;P1;durP2;ratioP2;P2;SDS_P1;SDS_P2;PMS_P1;PMS_P2;Temp;Humidity;BMP_temperature;BMP_pressure;BME280_temperature;BME280_humidity;BME280_pressure;Samples;Min_cycle;Max_cycle;Signal;HPM_P1;HPM_P2
2021/04/29 00:02:14;;;;;;;11.13;6.13;;;12.10;99.90;;;;;;5020045;28;20029;-83
2021/04/29 00:04:39;;;;;;;10.00;5.90;;;12.00;99.90;;;;;;5003169;28;20034;-83
2021/04/29 00:07:06;;;;;;;11.23;6.38;;;12.00;99.90;;;;;;5003791;28;20026;-83
2021/04/29 00:09:33;;;;;;;9.18;6.20;;;11.80;99.90;;;;;;5003139;28;20144;-82
2021/04/29 00:11:58;;;;;;;10.60;6.55;;;11.70;99.90;;;;;;5003689;28;20087;-86
2021/04/29 00:14:25;;;;;;;10.40;6.20;;;11.70;99.90;;;;;;5003772;28;20037;-84
2021/04/29 00:16:51;;;;;;;11.43;6.65;;;11.60;99.90;;;;;;5002811;28;20049;-84
2021/04/29 00:19:16;;;;;;;11.98;6.65;;;11.50;99.90;;;;;;5002075;28;20030;-82
2021/04/29 00:21:42;;;;;;;10.95;6.72;;;11.50;99.90;;;;;;5020994;28;20022;-83
2021/04/29 00:24:08;;;;;;;10.63;7.13;;;11.50;99.90;;;;;;5020114;28;20056;-82
2021/04/29 00:26:34;;;;;;;10.77;7.65;;;11.40;99.90;;;;;;5002760;28;20037;-83
2021/04/29 00:28:59;;;;;;;12.10;7.47;;;11.50;99.90;;;;;;5020006;28;20026;-83
2021/04/29 00:31:25;;;;;;;10.95;7.80;;;11.40;99.90;;;;;;5002742;28;20026;-81
2021/04/29 00:33:51;;;;;;;11.30;7.90;;;11.50;99.90;;;;;;5002652;28;20099;-84
2021/04/29 00:36:16;;;;;;;11.15;7.50;;;11.50;99.90;;;;;;5002832;28;20040;-82
2021/04/29 00:38:42;;;;;;;12.20;8.45;;;11.50;99.90;;;;;;5019356;28;20103;-83
2021/04/29 00:41:08;;;;;;;13.82;7.75;;;11.80;99.90;;;;;;5020055;28;20029;-82
2021/04/29 00:43:34;;;;;;;11.07;8.25;;;11.50;99.90;;;;;;5003624;28;20453;-83
2021/04/29 00:46:00;;;;;;;10.52;7.57;;;11.50;99.90;;;;;;5021003;28;20466;-84
2021/04/29 00:48:26;;;;;;;14.07;8.60;;;11.60;99.90;;;;;;5003305;28;20030;-84
2021/04/29 00:50:52;;;;;;;15.68;9.02;;;11.60;99.90;;;;;;5003735;28;20033;-84
2021/04/29 00:53:17;;;;;;;14.50;8.00;;;11.60;99.90;;;;;;4995870;28;20030;-82
2021/04/29 00:55:43;;;;;;;11.20;8.30;;;11.60;99.90;;;;;;5005928;28;20038;-84
2021/04/29 00:58:10;;;;;;;12.90;8.52;;;11.60;99.90;;;;;;5024862;28;20046;-85
2021/04/29 01:00:38;;;;;;;11.73;7.60;;;11.60;99.90;;;;;;5023586;28;20026;-84
2021/04/29 01:03:32;;;;;;;14.27;8.27;;;11.60;99.90;;;;;;5002533;28;20129;-84
2021/04/29 01:06:06;;;;;;;12.38;8.02;;;11.70;99.90;;;;;;5016823;28;20057;-83
2021/04/29 01:08:40;;;;;;;13.55;8.30;;;11.70;99.90;;;;;;5002753;28;20041;-86
2021/04/29 01:11:18;;;;;;;11.43;7.53;;;11.80;99.90;;;;;;5001335;28;20030;-83
2021/04/29 01:13:55;;;;;;;10.73;7.78;;;11.90;99.90;;;;;;5001416;28;20026;-83
2021/04/29 01:16:22;;;;;;;11.45;8.38;;;11.90;99.90;;;;;;5001250;28;20037;-84
2021/04/29 01:18:48;;;;;;;13.80;8.70;;;12.00;99.90;;;;;;5001564;28;20095;-85
2021/04/29 01:21:16;;;;;;;14.18;8.20;;;11.90;99.90;;;;;;5001374;28;20036;-83
2021/04/29 01:23:42;;;;;;;11.00;8.40;;;11.90;99.90;;;;;;5019198;28;20105;-83
2021/04/29 01:26:21;;;;;;;12.90;8.93;;;11.90;99.90;;;;;;5001393;28;20026;-85
2021/04/29 01:28:49;;;;;;;13.05;8.73;;;11.80;99.90;;;;;;5002020;28;20022;-84
2021/04/29 01:31:16;;;;;;;13.85;9.20;;;11.70;99.90;;;;;;5019210;28;20087;-82
2021/04/29 01:33:42;;;;;;;11.90;7.50;;;11.60;99.90;;;;;;5018840;28;20029;-83
2021/04/29 01:36:09;;;;;;;9.95;6.63;;;11.40;99.90;;;;;;5018696;28;20509;-81
2021/04/29 01:38:37;;;;;;;9.45;6.57;;;11.40;99.90;;;;;;5019341;28;20101;-84
2021/04/29 01:41:03;;;;;;;9.00;6.13;;;11.40;99.90;;;;;;5001064;28;20045;-82
2021/04/29 01:43:30;;;;;;;7.45;4.30;;;11.30;99.90;;;;;;5001485;28;20026;-84
2021/04/29 01:45:56;;;;;;;5.10;3.40;;;11.40;99.90;;;;;;5019715;28;20021;-83
2021/04/29 01:48:22;;;;;;;7.28;2.70;;;11.40;99.90;;;;;;5019018;28;20073;-84
2021/04/29 01:50:48;;;;;;;4.70;2.55;;;11.40;99.90;;;;;;5019602;28;20406;-83
2021/04/29 01:53:14;;;;;;;3.72;1.85;;;11.40;99.90;;;;;;5002954;28;20473;-83
2021/04/29 01:55:40;;;;;;;4.35;2.42;;;11.50;99.90;;;;;;5023757;28;20095;-84
2021/04/29 01:58:06;;;;;;;3.72;2.17;;;11.50;99.90;;;;;;5024165;28;20022;-83
2021/04/29 02:00:31;;;;;;;4.70;1.95;;;11.50;99.90;;;;;;5006306;28;20084;-83
2021/04/29 02:03:01;;;;;;;4.18;2.10;;;11.50;99.90;;;;;;5005827;28;20394;-84
2021/04/29 02:05:26;;;;;;;4.47;2.17;;;11.60;99.90;;;;;;5005249;28;20026;-83
2021/04/29 02:07:52;;;;;;;3.50;1.60;;;11.60;99.90;;;;;;5005574;28;20095;-85
2021/04/29 02:10:18;;;;;;;3.67;1.75;;;11.60;99.90;;;;;;5023285;28;20038;-83
2021/04/29 02:12:51;;;;;;;3.58;1.92;;;11.60;99.90;;;;;;5023683;28;20045;-84
2021/04/29 02:15:18;;;;;;;4.55;1.80;;;11.60;99.90;;;;;;5022673;28;20401;-83
2021/04/29 02:17:57;;;;;;;2.92;1.58;;;11.60;99.90;;;;;;5022893;28;20036;-83
2021/04/29 02:20:27;;;;;;;4.15;1.75;;;11.60;99.90;;;;;;5004058;28;20025;-82
2021/04/29 02:22:53;;;;;;;2.72;1.55;;;11.50;99.90;;;;;;5018116;28;20022;-84
2021/04/29 02:25:27;;;;;;;4.20;1.70;;;11.60;99.90;;;;;;5022567;28;20033;-83
2021/04/29 02:27:53;;;;;;;3.67;1.70;;;11.50;99.90;;;;;;5022807;28;20058;-82
2021/04/29 02:30:19;;;;;;;3.20;1.58;;;11.50;99.90;;;;;;5015559;28;20054;-83
2021/04/29 02:32:45;;;;;;;2.58;1.20;;;11.50;99.90;;;;;;4990496;28;20054;-83
2021/04/29 02:35:15;;;;;;;2.67;1.45;;;11.50;99.90;;;;;;5018976;28;20034;-85
2021/04/29 02:37:43;;;;;;;3.55;1.40;;;11.50;99.90;;;;;;4989204;28;20073;-84
2021/04/29 02:40:11;;;;;;;2.80;1.40;;;11.50;99.90;;;;;;5004793;28;20034;-83
2021/04/29 02:42:39;;;;;;;2.97;1.33;;;11.40;99.90;;;;;;5004620;28;20026;-84
2021/04/29 02:45:09;;;;;;;3.13;1.02;;;11.40;99.90;;;;;;5022333;28;20026;-83
2021/04/29 02:47:40;;;;;;;2.15;1.10;;;11.30;99.90;;;;;;5004567;28;20026;-83
2021/04/29 02:50:10;;;;;;;3.22;1.20;;;11.30;99.90;;;;;;5022405;28;20036;-82
2021/04/29 02:52:37;;;;;;;2.85;1.40;;;11.30;99.90;;;;;;5022322;28;20030;-82
2021/04/29 02:55:04;;;;;;;3.75;1.10;;;11.30;99.90;;;;;;5022016;28;20111;-84
2021/04/29 02:57:30;;;;;;;3.53;1.67;;;11.30;99.90;;;;;;5004449;28;20510;-83
2021/04/29 02:59:55;;;;;;;5.78;1.60;;;11.30;99.90;;;;;;5021988;28;20030;-82
2021/04/29 03:02:21;;;;;;;1.75;0.73;;;11.40;99.90;;;;;;5004739;28;20026;-84
2021/04/29 03:04:48;;;;;;;1.42;0.63;;;11.30;99.90;;;;;;5019811;28;20107;-84
2021/04/29 03:07:14;;;;;;;1.38;0.63;;;11.30;99.90;;;;;;4998012;28;20107;-82
2021/04/29 03:09:39;;;;;;;1.90;0.90;;;11.30;99.90;;;;;;5013582;28;20078;-82
2021/04/29 03:12:05;;;;;;;2.65;1.05;;;11.30;99.90;;;;;;5022175;28;20416;-84
2021/04/29 03:14:31;;;;;;;1.45;0.80;;;11.40;99.90;;;;;;5004382;28;20073;-82
2021/04/29 03:16:56;;;;;;;2.67;0.90;;;11.40;99.90;;;;;;5004797;28;20034;-85
2021/04/29 03:19:22;;;;;;;1.63;0.80;;;11.40;99.90;;;;;;5021703;28;20041;-83
2021/04/29 03:21:47;;;;;;;2.45;0.57;;;11.40;99.90;;;;;;5022294;28;20390;-83
2021/04/29 03:24:13;;;;;;;2.78;0.60;;;11.40;99.90;;;;;;5022143;28;20037;-84
2021/04/29 03:26:39;;;;;;;1.33;0.50;;;11.40;99.90;;;;;;5022465;28;20034;-83
2021/04/29 03:29:04;;;;;;;2.28;0.47;;;11.40;99.90;;;;;;5022872;28;20040;-84
2021/04/29 03:31:30;;;;;;;1.23;0.47;;;11.40;99.90;;;;;;5004903;28;20022;-84
2021/04/29 03:33:56;;;;;;;0.68;0.40;;;11.40;99.90;;;;;;5004760;28;20467;-84
2021/04/29 03:36:21;;;;;;;1.45;0.30;;;11.40;99.90;;;;;;5022299;28;20116;-85
2021/04/29 03:38:47;;;;;;;0.73;0.40;;;11.40;99.90;;;;;;5022200;28;20030;-86
2021/04/29 03:41:13;;;;;;;1.20;0.45;;;11.40;99.90;;;;;;5004917;28;20034;-84
2021/04/29 03:43:38;;;;;;;2.22;0.40;;;11.40;99.90;;;;;;5022940;28;20034;-83
2021/04/29 03:46:04;;;;;;;1.20;0.60;;;11.40;99.90;;;;;;5004546;28;20094;-84
2021/04/29 03:48:32;;;;;;;2.42;0.40;;;11.40;99.90;;;;;;5005655;28;20064;-83
2021/04/29 03:50:58;;;;;;;1.63;0.40;;;11.30;99.90;;;;;;5005397;28;20022;-83
2021/04/29 03:53:24;;;;;;;2.22;0.35;;;11.30;99.90;;;;;;5005125;28;20434;-84
2021/04/29 03:55:49;;;;;;;2.97;0.40;;;11.30;99.90;;;;;;5004343;28;20034;-83
2021/04/29 03:58:15;;;;;;;1.23;0.32;;;11.30;99.90;;;;;;5005328;28;20618;-83
2021/04/29 04:00:41;;;;;;;0.90;0.38;;;11.30;99.90;;;;;;5022448;28;20116;-84
2021/04/29 04:03:06;;;;;;;0.60;0.20;;;11.30;99.90;;;;;;5005655;28;20029;-84
2021/04/29 04:05:32;;;;;;;1.88;0.40;;;11.20;99.90;;;;;;5030990;28;20041;-87
2021/04/29 04:07:58;;;;;;;0.80;0.30;;;11.10;99.90;;;;;;5024441;28;20036;-83
2021/04/29 04:10:23;;;;;;;1.75;0.40;;;11.20;99.90;;;;;;5020977;28;20029;-82
2021/04/29 04:12:49;;;;;;;1.75;0.38;;;11.20;99.90;;;;;;5002354;28;20034;-84
2021/04/29 04:15:15;;;;;;;1.20;0.40;;;11.10;99.90;;;;;;5002026;28;20024;-84
2021/04/29 04:17:40;;;;;;;0.77;0.30;;;11.20;99.90;;;;;;5023535;28;20076;-86
2021/04/29 04:20:06;;;;;;;1.30;0.30;;;11.20;99.90;;;;;;5015339;28;20025;-83
2021/04/29 04:22:33;;;;;;;0.98;0.30;;;11.20;99.90;;;;;;5003415;28;20075;-83
2021/04/29 04:24:59;;;;;;;1.42;0.30;;;11.10;99.90;;;;;;5003389;28;20025;-84
2021/04/29 04:27:24;;;;;;;1.27;0.20;;;11.10;99.90;;;;;;5002237;28;20026;-84
2021/04/29 04:29:50;;;;;;;0.57;0.30;;;11.10;99.90;;;;;;5002175;28;20049;-83
2021/04/29 04:32:15;;;;;;;1.17;0.30;;;11.10;99.90;;;;;;5019360;28;20028;-85
2021/04/29 04:34:41;;;;;;;1.42;0.40;;;11.10;99.90;;;;;;5018338;28;20069;-83
2021/04/29 04:37:07;;;;;;;2.38;0.50;;;11.00;99.90;;;;;;4999175;28;20038;-83
2021/04/29 04:39:35;;;;;;;1.27;0.55;;;11.00;99.90;;;;;;4999267;28;20088;-82
2021/04/29 04:42:02;;;;;;;0.73;0.30;;;10.90;99.90;;;;;;5014445;28;20113;-82
2021/04/29 04:44:28;;;;;;;0.73;0.35;;;10.90;99.90;;;;;;5000095;28;20040;-82
2021/04/29 04:46:54;;;;;;;1.45;0.50;;;10.80;99.90;;;;;;5000754;28;20098;-82
2021/04/29 04:49:19;;;;;;;2.63;0.68;;;10.90;99.90;;;;;;5018760;28;20623;-82
2021/04/29 04:51:46;;;;;;;1.33;0.47;;;10.90;99.90;;;;;;5001114;28;20040;-85
2021/04/29 04:54:13;;;;;;;1.40;0.50;;;10.90;99.90;;;;;;5018789;28;20115;-82
2021/04/29 04:56:38;;;;;;;1.63;0.50;;;10.80;99.90;;;;;;5018815;28;20026;-87
2021/04/29 04:59:04;;;;;;;1.67;0.70;;;10.80;99.90;;;;;;4999681;28;20478;-83
2021/04/29 05:01:31;;;;;;;1.27;0.43;;;10.70;99.90;;;;;;5000199;28;20087;-82
2021/04/29 05:03:56;;;;;;;2.17;0.68;;;10.80;99.90;;;;;;5017380;28;20105;-82
2021/04/29 05:06:22;;;;;;;3.17;0.70;;;10.80;99.90;;;;;;5016702;28;20052;-84
2021/04/29 05:08:48;;;;;;;1.77;0.70;;;10.80;99.90;;;;;;5015651;28;20064;-82
2021/04/29 05:11:14;;;;;;;2.88;0.90;;;10.80;99.90;;;;;;4997682;28;20017;-82
2021/04/29 05:13:39;;;;;;;2.00;0.88;;;10.80;99.90;;;;;;4995052;28;20501;-85
2021/04/29 05:16:05;;;;;;;2.38;0.98;;;10.80;99.90;;;;;;4998863;28;20505;-83
2021/04/29 05:18:31;;;;;;;2.75;0.98;;;10.80;99.90;;;;;;4999557;28;20458;-82
2021/04/29 05:20:56;;;;;;;2.85;1.10;;;10.80;99.90;;;;;;4999600;28;20093;-82
2021/04/29 05:23:22;;;;;;;3.05;1.00;;;10.90;99.90;;;;;;4999389;28;20029;-82
2021/04/29 05:25:48;;;;;;;3.97;1.45;;;10.80;99.90;;;;;;5018141;28;20033;-84
2021/04/29 05:28:13;;;;;;;5.05;1.60;;;10.80;99.90;;;;;;4999175;28;20030;-83
2021/04/29 05:30:39;;;;;;;3.10;1.10;;;10.80;99.90;;;;;;4997658;28;20604;-82
2021/04/29 05:33:04;;;;;;;2.92;1.20;;;10.80;99.90;;;;;;4993410;28;20022;-82
2021/04/29 05:35:30;;;;;;;3.20;1.20;;;10.70;99.90;;;;;;4999333;28;20095;-85
2021/04/29 05:37:56;;;;;;;3.55;1.30;;;10.70;99.90;;;;;;4998884;28;20075;-84
2021/04/29 05:40:22;;;;;;;4.40;1.05;;;10.70;99.90;;;;;;4994351;28;20515;-84
2021/04/29 05:42:48;;;;;;;3.67;1.30;;;10.70;99.90;;;;;;4999755;28;20036;-82
2021/04/29 05:45:14;;;;;;;3.22;1.48;;;10.70;99.90;;;;;;5000147;28;20025;-82
2021/04/29 05:47:41;;;;;;;3.80;1.17;;;10.70;99.90;;;;;;4992654;28;20030;-86
2021/04/29 05:50:08;;;;;;;3.95;1.30;;;10.70;99.90;;;;;;5010809;28;20021;-88
2021/04/29 05:52:34;;;;;;;4.05;1.70;;;10.80;99.90;;;;;;4996203;28;20029;-83
2021/04/29 05:54:59;;;;;;;4.63;1.90;;;10.80;99.90;;;;;;5009730;28;20038;-84
2021/04/29 05:57:25;;;;;;;3.85;1.67;;;10.70;99.90;;;;;;4986201;28;20503;-85
2021/04/29 05:59:51;;;;;;;6.15;1.80;;;10.70;99.90;;;;;;4998995;28;20026;-84
2021/04/29 06:02:17;;;;;;;7.07;1.98;;;10.80;99.90;;;;;;4992913;28;20045;-86
2021/04/29 06:04:43;;;;;;;6.43;2.65;;;10.80;99.90;;;;;;4995749;28;20040;-87
2021/04/29 06:07:10;;;;;;;8.05;2.20;;;10.70;99.90;;;;;;4999118;28;20049;-87
2021/04/29 06:09:36;;;;;;;6.93;2.05;;;10.70;99.90;;;;;;4990661;28;20076;-87
2021/04/29 06:12:02;;;;;;;8.15;3.67;;;10.80;99.90;;;;;;4997837;28;20026;-84
2021/04/29 06:14:29;;;;;;;6.05;2.70;;;10.80;99.90;;;;;;5013664;28;20038;-84
2021/04/29 06:16:56;;;;;;;7.63;2.65;;;10.80;99.90;;;;;;4998420;28;20120;-83
2021/04/29 06:19:24;;;;;;;5.55;2.60;;;10.90;99.90;;;;;;4992944;28;20026;-87
2021/04/29 06:21:49;;;;;;;4.55;1.98;;;10.90;99.90;;;;;;5013376;28;20461;-85
2021/04/29 06:24:15;;;;;;;6.57;2.50;;;11.00;99.90;;;;;;5015092;28;20030;-83
2021/04/29 06:26:46;;;;;;;5.28;2.95;;;11.10;99.90;;;;;;4996337;28;20029;-83
2021/04/29 06:29:13;;;;;;;4.93;2.30;;;11.10;99.90;;;;;;4998188;28;20038;-84
2021/04/29 06:31:41;;;;;;;5.68;3.58;;;11.20;99.90;;;;;;4997022;28;20080;-84
2021/04/29 06:34:08;;;;;;;5.55;2.40;;;11.10;99.90;;;;;;4994394;28;20038;-87
2021/04/29 06:36:34;;;;;;;4.75;2.40;;;11.10;99.90;;;;;;4994491;28;20037;-83
2021/04/29 06:39:01;;;;;;;4.45;2.45;;;11.10;99.90;;;;;;5017713;28;20089;-85
2021/04/29 06:41:27;;;;;;;5.15;2.50;;;11.10;99.90;;;;;;5020105;28;20040;-84
2021/04/29 06:43:53;;;;;;;6.43;2.10;;;11.10;99.90;;;;;;5020567;28;20030;-83
2021/04/29 06:46:19;;;;;;;4.80;2.60;;;11.20;99.90;;;;;;5019058;28;20053;-85
2021/04/29 06:48:45;;;;;;;5.63;2.80;;;11.30;99.90;;;;;;5018897;28;20092;-85
2021/04/29 06:51:10;;;;;;;6.60;2.60;;;11.30;99.90;;;;;;4997852;28;20026;-86
2021/04/29 06:53:36;;;;;;;5.38;3.17;;;11.40;99.90;;;;;;4995660;28;20049;-86
2021/04/29 06:56:02;;;;;;;7.80;2.83;;;11.50;99.90;;;;;;4990534;28;20448;-84
2021/04/29 06:58:28;;;;;;;6.43;2.70;;;11.60;99.90;;;;;;5004426;28;20367;-84
2021/04/29 07:00:54;;;;;;;4.75;2.60;;;11.60;99.90;;;;;;5008594;28;20026;-84
2021/04/29 07:03:20;;;;;;;5.60;2.42;;;11.80;99.90;;;;;;5004610;28;20571;-83
2021/04/29 07:34:19;;;;;;;6.63;3.25;;;12.50;99.90;;;;;;5008069;28;20049;-86
2021/04/29 07:36:47;;;;;;;6.72;3.50;;;12.70;99.90;;;;;;4998763;28;20097;-85
2021/04/29 07:39:13;;;;;;;7.65;3.38;;;12.80;99.90;;;;;;4996170;28;20116;-84
2021/04/29 07:41:39;;;;;;;5.80;3.30;;;12.90;99.90;;;;;;5014229;28;20096;-85
2021/04/29 07:44:05;;;;;;;8.38;3.13;;;13.00;99.90;;;;;;4998490;28;20038;-85
2021/04/29 07:46:32;;;;;;;7.45;3.30;;;12.90;99.90;;;;;;4998982;28;20018;-85
2021/04/29 07:49:00;;;;;;;6.80;3.80;;;12.80;99.90;;;;;;4997129;28;20113;-85
2021/04/29 07:51:26;;;;;;;5.32;3.60;;;12.90;99.90;;;;;;4995340;28;20026;-85
2021/04/29 07:53:52;;;;;;;7.00;4.00;;;13.20;99.90;;;;;;4999204;28;20037;-85
2021/04/29 07:56:19;;;;;;;7.28;3.92;;;13.50;99.90;;;;;;4998467;28;20124;-85
2021/04/29 07:58:44;;;;;;;8.27;4.07;;;13.90;99.90;;;;;;4997807;28;20041;-85
2021/04/29 08:01:10;;;;;;;9.23;5.40;;;14.00;99.90;;;;;;4997413;28;20022;-85
2021/04/29 08:03:36;;;;;;;9.23;4.60;;;14.10;99.90;;;;;;4999730;28;20026;-86
2021/04/29 08:06:02;;;;;;;7.88;4.35;;;14.30;99.90;;;;;;4996626;28;20026;-85
2021/04/29 08:08:27;;;;;;;9.80;5.03;;;14.10;99.90;;;;;;4999178;28;20042;-85
2021/04/29 08:10:53;;;;;;;9.82;4.85;;;13.90;99.90;;;;;;5000699;28;20014;-85
2021/04/29 08:13:19;;;;;;;7.15;4.03;;;13.80;99.90;;;;;;4998468;28;20113;-85
2021/04/29 08:15:45;;;;;;;9.05;4.90;;;13.60;99.90;;;;;;5018278;28;20030;-86
2021/04/29 08:18:11;;;;;;;8.23;5.10;;;13.50;99.90;;;;;;5012026;28;20150;-86
2021/04/29 08:20:39;;;;;;;8.88;5.18;;;13.30;99.90;;;;;;4999027;28;20025;-86
2021/04/29 08:23:05;;;;;;;7.55;5.03;;;13.30;99.90;;;;;;5000875;28;20021;-86
2021/04/29 08:25:30;;;;;;;11.65;4.95;;;13.30;99.90;;;;;;5000871;28;20148;-85
2021/04/29 08:27:56;;;;;;;10.00;5.72;;;13.40;99.90;;;;;;5026127;28;20526;-84
2021/04/29 08:30:28;;;;;;;12.75;5.47;;;13.50;99.90;;;;;;5017596;28;20084;-85
2021/04/29 08:32:59;;;;;;;12.38;5.25;;;13.70;99.90;;;;;;4998140;28;20026;-84
2021/04/29 08:35:25;;;;;;;11.53;4.73;;;13.80;99.90;;;;;;5001316;28;20425;-85
2021/04/29 08:37:55;;;;;;;12.02;5.43;;;13.80;99.90;;;;;;5000361;28;20037;-87
2021/04/29 08:40:22;;;;;;;7.95;4.22;;;14.20;99.90;;;;;;5004005;28;20075;-85
2021/04/29 08:42:49;;;;;;;8.98;5.65;;;13.80;99.90;;;;;;4998828;28;20033;-87
2021/04/29 08:45:16;;;;;;;9.63;5.25;;;13.80;99.90;;;;;;5003882;28;20141;-86
2021/04/29 08:47:50;;;;;;;13.20;5.72;;;14.00;99.90;;;;;;5000087;28;20030;-87
2021/04/29 08:50:18;;;;;;;10.13;5.78;;;14.10;99.90;;;;;;4996009;28;20501;-85
2021/04/29 08:52:44;;;;;;;10.27;5.45;;;14.00;99.90;;;;;;4988688;28;20025;-85
2021/04/29 08:55:19;;;;;;;8.55;5.22;;;14.00;99.90;;;;;;4989796;28;20022;-87
2021/04/29 08:57:45;;;;;;;8.50;5.20;;;14.10;99.90;;;;;;4990422;28;20022;-84
2021/04/29 09:00:13;;;;;;;9.02;5.13;;;14.20;99.90;;;;;;5005411;28;20022;-86
2021/04/29 09:02:39;;;;;;;9.93;5.45;;;14.50;99.90;;;;;;4997741;28;20026;-86
2021/04/29 09:05:16;;;;;;;8.93;5.38;;;14.50;99.90;;;;;;4993791;28;20418;-86
2021/04/29 09:08:01;;;;;;;8.63;5.13;;;14.60;99.90;;;;;;5008252;28;20031;-87
2021/04/29 09:10:39;;;;;;;9.60;4.90;;;14.80;99.90;;;;;;4994237;28;20036;-87
2021/04/29 09:13:24;;;;;;;9.60;4.72;;;14.70;99.90;;;;;;4993519;28;20084;-86
2021/04/29 09:15:51;;;;;;;9.93;4.68;;;14.50;99.90;;;;;;4994919;28;20105;-85
2021/04/29 09:18:18;;;;;;;9.00;4.95;;;14.30;99.90;;;;;;4997805;28;20022;-85
2021/04/29 09:20:54;;;;;;;10.15;5.13;;;14.30;99.90;;;;;;4994641;28;20644;-85
2021/04/29 09:23:32;;;;;;;8.27;4.70;;;14.40;99.90;;;;;;4995869;28;20034;-86
2021/04/29 09:25:59;;;;;;;10.23;4.47;;;14.50;99.90;;;;;;5011886;28;20017;-84
2021/04/29 09:28:41;;;;;;;8.45;4.97;;;14.50;99.90;;;;;;4987894;28;20382;-85
2021/04/29 09:31:14;;;;;;;8.70;4.90;;;14.40;99.90;;;;;;5004878;28;20021;-85
2021/04/29 09:33:44;;;;;;;10.35;4.40;;;14.20;99.90;;;;;;5003218;28;20034;-85
2021/04/29 09:36:27;;;;;;;9.13;5.20;;;14.10;99.90;;;;;;5004141;28;20033;-85
2021/04/29 09:38:55;;;;;;;9.80;5.07;;;14.10;99.90;;;;;;5012636;28;20061;-86
2021/04/29 09:41:26;;;;;;;10.30;4.97;;;14.10;99.90;;;;;;5004496;28;20203;-85
2021/04/29 09:44:09;;;;;;;7.40;4.00;;;14.10;99.90;;;;;;4989747;28;20040;-85
2021/04/29 09:46:41;;;;;;;6.15;3.10;;;14.10;99.90;;;;;;4999767;28;20506;-84
2021/04/29 09:49:32;;;;;;;6.85;3.80;;;13.90;99.90;;;;;;5003967;28;20022;-85
2021/04/29 09:52:00;;;;;;;6.97;4.05;;;13.50;99.90;;;;;;5011624;28;20105;-85
2021/04/29 09:54:32;;;;;;;7.30;4.45;;;13.30;99.90;;;;;;4998513;28;20034;-86
2021/04/29 09:57:16;;;;;;;8.65;4.88;;;13.20;99.90;;;;;;4991237;28;20034;-85
2021/04/29 09:59:45;;;;;;;10.20;5.20;;;13.10;99.90;;;;;;4997564;28;20115;-85
2021/04/29 10:02:13;;;;;;;6.82;4.20;;;13.50;99.90;;;;;;4992507;28;20029;-84
2021/04/29 10:04:40;;;;;;;8.48;4.55;;;13.80;99.90;;;;;;4998807;28;20050;-86
2021/04/29 10:07:13;;;;;;;8.43;4.65;;;14.20;99.90;;;;;;4999301;28;20076;-85
2021/04/29 10:09:42;;;;;;;7.60;4.72;;;14.50;99.90;;;;;;5015230;28;20101;-85
2021/04/29 10:12:11;;;;;;;7.45;4.63;;;15.00;99.90;;;;;;5010815;28;20025;-85
2021/04/29 10:14:44;;;;;;;7.72;4.80;;;15.10;99.90;;;;;;5021477;28;20302;-86
2021/04/29 10:17:11;;;;;;;10.45;5.05;;;15.40;99.90;;;;;;5009468;28;20025;-86
2021/04/29 10:19:49;;;;;;;10.05;5.28;;;15.70;99.90;;;;;;5000056;28;20057;-87
2021/04/29 10:22:16;;;;;;;9.65;5.05;;;15.60;99.90;;;;;;5002594;28;20061;-87
2021/04/29 10:24:47;;;;;;;7.55;4.57;;;15.90;99.90;;;;;;5002966;28;20493;-86
2021/04/29 10:27:23;;;;;;;6.97;4.68;;;15.60;99.90;;;;;;5001672;28;20051;-86
2021/04/29 10:30:01;;;;;;;9.52;4.95;;;15.70;99.90;;;;;;5008055;28;20028;-87
2021/04/29 10:32:33;;;;;;;10.07;4.90;;;15.70;99.90;;;;;;4998050;28;20034;-88
2021/04/29 10:34:59;;;;;;;10.75;5.30;;;16.00;99.90;;;;;;4999835;28;20035;-87
2021/04/29 10:37:30;;;;;;;9.68;4.80;;;15.60;99.90;;;;;;4997555;28;20092;-85
2021/04/29 10:39:59;;;;;;;9.68;4.65;;;15.50;99.90;;;;;;5012842;28;20030;-85
2021/04/29 10:42:28;;;;;;;7.78;4.65;;;15.40;99.90;;;;;;4999932;28;20073;-85
2021/04/29 10:45:06;;;;;;;10.10;5.15;;;15.40;99.90;;;;;;4993378;28;20053;-86
2021/04/29 10:47:32;;;;;;;10.02;4.93;;;15.30;99.90;;;;;;5009630;28;20018;-86
2021/04/29 10:50:13;;;;;;;9.20;4.70;;;15.00;99.90;;;;;;4990093;28;20137;-86
2021/04/29 10:52:50;;;;;;;10.40;4.88;;;15.10;99.90;;;;;;5008866;28;20029;-85
2021/04/29 10:55:26;;;;;;;8.35;5.03;;;15.00;99.90;;;;;;4998567;28;20112;-87
2021/04/29 10:57:52;;;;;;;8.93;4.30;;;15.10;99.90;;;;;;4987741;28;20029;-86
2021/04/29 11:00:18;;;;;;;8.15;4.75;;;15.30;99.90;;;;;;5009021;28;20026;-86
2021/04/29 11:02:55;;;;;;;7.55;4.38;;;15.40;99.90;;;;;;5001929;28;20171;-85
2021/04/29 11:05:23;;;;;;;7.82;4.68;;;15.70;99.90;;;;;;4994084;28;20045;-86
2021/04/29 11:07:49;;;;;;;10.57;4.78;;;15.80;99.90;;;;;;4999258;28;20102;-85
2021/04/29 11:10:16;;;;;;;7.15;4.32;;;15.90;99.90;;;;;;5011734;28;20015;-85
2021/04/29 11:12:46;;;;;;;8.00;3.97;;;16.30;99.10;;;;;;4999601;28;20431;-86
2021/04/29 11:15:23;;;;;;;7.57;4.10;;;16.50;99.30;;;;;;5008607;28;20029;-86
2021/04/29 11:18:11;;;;;;;6.30;3.28;;;16.60;97.00;;;;;;4999296;28;20022;-85
2021/04/29 11:20:53;;;;;;;6.47;3.13;;;16.50;95.80;;;;;;4994067;28;20044;-86
2021/04/29 11:23:31;;;;;;;;;;;16.20;94.60;;;;;;5006759;28;20057;-86
2021/04/29 11:26:17;;;;;;;7.07;3.28;;;16.30;95.50;;;;;;5009170;28;19905;-86
2021/04/29 11:28:44;;;;;;;7.07;3.17;;;16.90;92.70;;;;;;5004789;28;20368;-86
2021/04/29 11:31:10;;;;;;;5.90;2.65;;;17.20;92.00;;;;;;4992178;28;20017;-86
2021/04/29 11:33:39;;;;;;;6.93;3.10;;;17.00;88.40;;;;;;5014088;28;20120;-86
2021/04/29 11:36:16;;;;;;;6.32;3.08;;;17.00;92.90;;;;;;5004185;28;20621;-86
2021/04/29 11:38:54;;;;;;;7.47;2.90;;;16.80;93.00;;;;;;4992886;28;20021;-85
2021/04/29 11:41:20;;;;;;;6.43;3.03;;;16.60;91.80;;;;;;5015087;28;20155;-85
2021/04/29 11:43:56;;;;;;;4.65;2.65;;;16.60;92.00;;;;;;5006592;28;20034;-86
2021/04/29 11:46:23;;;;;;;5.80;2.78;;;16.20;91.90;;;;;;5000905;28;20109;-86
2021/04/29 11:49:06;;;;;;;5.70;2.58;;;16.00;93.30;;;;;;5004195;28;20551;-86
2021/04/29 11:51:34;;;;;;;6.00;2.50;;;15.70;92.80;;;;;;5008749;28;20022;-85
2021/04/29 11:54:02;;;;;;;8.65;2.63;;;15.50;93.20;;;;;;4998688;28;20550;-86
2021/04/29 11:56:44;;;;;;;5.85;2.40;;;15.20;93.40;;;;;;5015607;28;20044;-85
2021/04/29 11:59:11;;;;;;;6.23;2.50;;;14.80;94.10;;;;;;5013009;28;20513;-86
2021/04/29 12:01:38;;;;;;;6.60;2.38;;;14.60;95.30;;;;;;5013083;28;20022;-86
2021/04/29 12:04:17;;;;;;;3.95;2.05;;;14.50;95.80;;;;;;4996681;28;20768;-85
2021/04/29 12:06:48;;;;;;;5.82;2.30;;;14.70;95.30;;;;;;5009619;28;20073;-85
2021/04/29 12:09:13;;;;;;;4.80;2.55;;;15.20;96.30;;;;;;5006729;28;20057;-87
2021/04/29 12:11:39;;;;;;;5.00;2.22;;;15.80;96.00;;;;;;4993205;28;20045;-86
2021/04/29 12:14:05;;;;;;;6.95;2.00;;;16.10;93.10;;;;;;5010605;28;20056;-87
2021/04/29 12:16:32;;;;;;;5.03;2.13;;;16.60;90.90;;;;;;5006424;28;20022;-88
2021/04/29 12:18:58;;;;;;;6.13;2.05;;;16.40;91.60;;;;;;5001721;28;20096;-88
2021/04/29 12:21:28;;;;;;;6.97;2.70;;;16.20;90.90;;;;;;4989327;28;20491;-88
2021/04/29 12:24:09;;;;;;;5.00;2.47;;;16.30;89.60;;;;;;5002664;28;20102;-87
2021/04/29 12:26:40;;;;;;;5.35;2.00;;;16.20;89.60;;;;;;5003113;28;20026;-85
2021/04/29 12:29:10;;;;;;;4.07;2.10;;;16.40;90.30;;;;;;5007255;28;20430;-85
2021/04/29 12:31:37;;;;;;;6.57;2.13;;;16.30;90.30;;;;;;5007100;28;20092;-85
2021/04/29 12:34:05;;;;;;;4.38;1.98;;;16.10;89.20;;;;;;5008838;28;20124;-87
2021/04/29 12:36:36;;;;;;;5.03;2.03;;;16.10;89.90;;;;;;4993660;28;20304;-87
2021/04/29 12:39:16;;;;;;;5.63;1.63;;;16.00;90.70;;;;;;4994311;28;20022;-87
2021/04/29 12:41:43;;;;;;;5.57;1.80;;;15.90;90.20;;;;;;4997363;28;20026;-86
2021/04/29 12:44:10;;;;;;;5.93;1.80;;;15.80;90.40;;;;;;5005785;28;20494;-86
2021/04/29 12:46:38;;;;;;;3.60;1.90;;;15.90;90.50;;;;;;4995663;28;20427;-86
2021/04/29 12:49:05;;;;;;;6.32;2.03;;;15.80;91.10;;;;;;5005998;28;20037;-85
2021/04/29 12:51:32;;;;;;;3.97;1.85;;;16.40;90.60;;;;;;5002845;28;20109;-85
2021/04/29 12:54:01;;;;;;;4.95;1.90;;;16.90;90.10;;;;;;4994352;28;20121;-85
2021/04/29 12:56:30;;;;;;;4.28;2.17;;;17.10;89.70;;;;;;5003619;28;20092;-86
2021/04/29 12:58:56;;;;;;;3.97;2.00;;;17.00;88.50;;;;;;4997306;28;20022;-85
2021/04/29 13:01:25;;;;;;;4.20;2.00;;;17.10;85.60;;;;;;4997440;28;20112;-86
2021/04/29 13:03:51;;;;;;;5.43;2.60;;;17.10;86.40;;;;;;5001944;28;20125;-86
2021/04/29 13:06:20;;;;;;;5.57;2.42;;;16.50;87.60;;;;;;5054332;23;20046;-84
2021/04/29 13:08:45;;;;;;;4.78;2.20;;;16.20;90.00;;;;;;5014974;28;20018;-84
2021/04/29 13:11:14;;;;;;;5.88;2.58;;;15.90;90.00;;;;;;5005725;28;20486;-84
2021/04/29 13:13:42;;;;;;;3.58;2.30;;;15.80;90.40;;;;;;5006680;28;20104;-84
2021/04/29 13:16:08;;;;;;;3.80;1.80;;;15.70;91.50;;;;;;5034624;28;20021;-84
2021/04/29 13:18:35;;;;;;;6.78;2.28;;;15.50;91.00;;;;;;5004173;28;20029;-84
2021/04/29 13:21:00;;;;;;;4.30;1.92;;;15.30;92.40;;;;;;5023777;28;20028;-80